Sharpsville, Indiana
Current Conditions -  °F | °C
As of 3:15 AM on Tuesday 27 Jan 2015 (Local Time) from KOKK Reporting Station
Overcast Overcast  
Wind Chill: 16°   Ceiling: 1800
Heat Index: 23°   Visibility: 10mi
Dew Point: 18°   Wind: 6mph
Humidity: 80%   Direction: 110°ESE
Pressure: 29.94"   Gusts: NA
Location:  40.38°N, 86.09°W
Report Text: KOKK 270815Z AUTO 11005KT 10SM OVC018 M05/M08 A2994 RMK AO1
Loading
Personal Weather Stations






























Interactive Weather Map New forecast layout! Learn more

10-Day Weather Forecast

Advertisements
Track Severe Weather on mobile